Terminal Aerodrome Forecast
Issued by NWS

Home | Current Version | Previous Version | Text Only | Print | Product List | Glossary On
Versions: 1 2 3 4 5 6 7 8 9 10 11 12 13 14 15
000
FTUS45 KTFX 180534
TAFCTB
TAF
KCTB 180534Z 1806/1906 22020G29KT P6SM SCT150 BKN200 WS020/25045KT
     FM181400 20023G30KT P6SM SCT120 BKN200
     FM190100 21014KT P6SM SCT150=

USA.gov is the U.S. government's official web portal to all federal, state and local government web resources and services.